HKNW/WIL METAR and TAF weather

Enter ICAO airport designator
Station Type Date Time Source
HKNW METAR 2021/08/04 18:00 UTC NOAA

HKNW 041800Z 15005KT 9999 BKN018 16/11 Q1026


Station Type Date Time Source
HKNW Decoded METAR 2021/08/04 18:00 UTC NOAA

Nairobi / Wilson, Kenya (HKNW) 01-19S 036-49E 1679M
Aug 04, 2021 - 02:00 PM EDT / 2021.08.04 1800 UTC
Wind: from the SSE (150 degrees) at 6 MPH (5 KT):0
Visibility: greater than 7 mile(s):0
Sky conditions: mostly cloudy
Temperature: 60 F (16 C)
Dew Point: 51 F (11 C)
Relative Humidity: 72%
Pressure (altimeter): 30.30 in. Hg (1026 hPa)
ob: HKNW 041800Z 15005KT 9999 BKN018 16/11 Q1026
cycle: 18

Station Type Date Time Source
HKNW TAF 2021/08/04 18:42 UTC NOAA

TAF HKNW 041700Z 0418/0518 10005KT 9999 BKN020
TEMPO 0500/0504 FEW008 BKN015
BECMG 0508/0511 12010KT BKN024

Example: see airport list